sensor_id;sensor_type;location;lat;lon;timestamp;pressure;altitude;pressure_sealevel;temperature;humidity
21395;BME280;10858;42.714;23.180;2022-09-09T00:02:22;94620.75;;;16.25;85.42
21395;BME280;10858;42.714;23.180;2022-09-09T00:05:15;94617.66;;;16.04;86.00
21395;BME280;10858;42.714;23.180;2022-09-09T00:07:48;94617.44;;;16.39;84.50
21395;BME280;10858;42.714;23.180;2022-09-09T00:13:02;94622.66;;;15.99;85.92
21395;BME280;10858;42.714;23.180;2022-09-09T00:21:07;94600.06;;;16.01;85.46
21395;BME280;10858;42.714;23.180;2022-09-09T00:23:47;94591.19;;;15.85;85.70
21395;BME280;10858;42.714;23.180;2022-09-09T00:26:41;94589.13;;;15.71;86.51
21395;BME280;10858;42.714;23.180;2022-09-09T00:31:46;94573.44;;;15.84;86.76
21395;BME280;10858;42.714;23.180;2022-09-09T00:34:22;94576.75;;;15.78;86.41
21395;BME280;10858;42.714;23.180;2022-09-09T00:36:51;94578.59;;;15.77;87.38
21395;BME280;10858;42.714;23.180;2022-09-09T00:44:34;94586.09;;;15.74;85.87
21395;BME280;10858;42.714;23.180;2022-09-09T00:50:09;94588.28;;;15.70;85.60
21395;BME280;10858;42.714;23.180;2022-09-09T00:58:28;94587.13;;;15.47;87.31
21395;BME280;10858;42.714;23.180;2022-09-09T01:01:04;94594.94;;;15.41;87.41
21395;BME280;10858;42.714;23.180;2022-09-09T01:03:51;94590.31;;;15.43;86.79
21395;BME280;10858;42.714;23.180;2022-09-09T01:06:36;94584.34;;;15.49;86.59
21395;BME280;10858;42.714;23.180;2022-09-09T01:14:29;94586.91;;;15.66;86.14
21395;BME280;10858;42.714;23.180;2022-09-09T01:27:48;94586.94;;;15.74;85.28
21395;BME280;10858;42.714;23.180;2022-09-09T01:30:17;94585.34;;;15.56;85.90
21395;BME280;10858;42.714;23.180;2022-09-09T01:32:46;94596.72;;;15.58;85.79
21395;BME280;10858;42.714;23.180;2022-09-09T01:38:07;94611.78;;;15.33;86.35
21395;BME280;10858;42.714;23.180;2022-09-09T01:40:34;94596.56;;;15.33;85.79
21395;BME280;10858;42.714;23.180;2022-09-09T01:43:00;94605.81;;;15.65;84.90
21395;BME280;10858;42.714;23.180;2022-09-09T01:45:27;94607.19;;;15.43;85.72
21395;BME280;10858;42.714;23.180;2022-09-09T01:47:53;94599.91;;;15.61;85.21
21395;BME280;10858;42.714;23.180;2022-09-09T01:50:20;94597.38;;;15.93;83.89
21395;BME280;10858;42.714;23.180;2022-09-09T01:52:50;94596.28;;;15.70;84.28
21395;BME280;10858;42.714;23.180;2022-09-09T01:55:20;94601.97;;;15.42;86.66
21395;BME280;10858;42.714;23.180;2022-09-09T01:57:59;94604.81;;;15.40;86.98
21395;BME280;10858;42.714;23.180;2022-09-09T02:00:30;94603.06;;;15.49;86.38
21395;BME280;10858;42.714;23.180;2022-09-09T02:03:49;94597.28;;;15.69;85.22
21395;BME280;10858;42.714;23.180;2022-09-09T02:06:05;94600.75;;;15.62;85.72
21395;BME280;10858;42.714;23.180;2022-09-09T02:08:52;94592.09;;;15.68;85.55
21395;BME280;10858;42.714;23.180;2022-09-09T02:11:22;94578.94;;;15.74;85.14
21395;BME280;10858;42.714;23.180;2022-09-09T02:13:52;94588.72;;;15.58;85.84
21395;BME280;10858;42.714;23.180;2022-09-09T02:16:45;94588.84;;;15.48;86.51
21395;BME280;10858;42.714;23.180;2022-09-09T02:19:21;94592.69;;;15.54;86.31
21395;BME280;10858;42.714;23.180;2022-09-09T02:21:53;94594.91;;;15.32;86.52
21395;BME280;10858;42.714;23.180;2022-09-09T02:24:22;94604.03;;;15.48;85.47
21395;BME280;10858;42.714;23.180;2022-09-09T02:26:51;94605.09;;;15.29;85.73
21395;BME280;10858;42.714;23.180;2022-09-09T02:29:34;94606.13;;;15.10;86.39
21395;BME280;10858;42.714;23.180;2022-09-09T02:32:04;94614.53;;;14.98;86.68
21395;BME280;10858;42.714;23.180;2022-09-09T02:34:35;94611.25;;;15.04;86.64
21395;BME280;10858;42.714;23.180;2022-09-09T02:37:04;94615.91;;;15.02;86.57
21395;BME280;10858;42.714;23.180;2022-09-09T02:39:32;94615.63;;;15.05;86.36
21395;BME280;10858;42.714;23.180;2022-09-09T02:41:58;94613.50;;;15.16;85.83
21395;BME280;10858;42.714;23.180;2022-09-09T02:44:25;94607.81;;;15.37;85.37
21395;BME280;10858;42.714;23.180;2022-09-09T02:52:15;94622.47;;;15.07;86.53
21395;BME280;10858;42.714;23.180;2022-09-09T02:54:45;94616.63;;;14.86;86.89
21395;BME280;10858;42.714;23.180;2022-09-09T02:57:14;94613.97;;;15.12;86.10
21395;BME280;10858;42.714;23.180;2022-09-09T02:59:44;94601.19;;;15.23;85.73
21395;BME280;10858;42.714;23.180;2022-09-09T03:02:11;94603.75;;;15.07;86.93
21395;BME280;10858;42.714;23.180;2022-09-09T03:04:39;94613.25;;;15.27;86.78
21395;BME280;10858;42.714;23.180;2022-09-09T03:07:06;94605.72;;;15.23;86.47
21395;BME280;10858;42.714;23.180;2022-09-09T03:09:32;94616.19;;;15.16;86.63
21395;BME280;10858;42.714;23.180;2022-09-09T03:11:59;94610.72;;;15.00;86.56
21395;BME280;10858;42.714;23.180;2022-09-09T03:14:26;94610.22;;;14.97;86.04
21395;BME280;10858;42.714;23.180;2022-09-09T03:16:53;94611.47;;;14.85;86.71
21395;BME280;10858;42.714;23.180;2022-09-09T03:19:20;94618.56;;;14.76;87.09
21395;BME280;10858;42.714;23.180;2022-09-09T03:21:47;94604.94;;;14.87;86.90
21395;BME280;10858;42.714;23.180;2022-09-09T03:24:14;94606.88;;;14.77;86.90
21395;BME280;10858;42.714;23.180;2022-09-09T03:26:41;94598.47;;;15.15;85.89
21395;BME280;10858;42.714;23.180;2022-09-09T03:29:11;94597.16;;;15.19;85.73
21395;BME280;10858;42.714;23.180;2022-09-09T03:31:39;94587.78;;;15.41;84.65
21395;BME280;10858;42.714;23.180;2022-09-09T03:34:06;94591.97;;;15.44;83.86
21395;BME280;10858;42.714;23.180;2022-09-09T03:36:32;94600.25;;;15.07;85.27
21395;BME280;10858;42.714;23.180;2022-09-09T03:38:59;94604.13;;;14.87;85.99
21395;BME280;10858;42.714;23.180;2022-09-09T03:41:26;94602.56;;;15.02;85.94
21395;BME280;10858;42.714;23.180;2022-09-09T03:43:53;94606.94;;;14.85;86.78
21395;BME280;10858;42.714;23.180;2022-09-09T03:46:22;94610.66;;;14.92;87.02
21395;BME280;10858;42.714;23.180;2022-09-09T03:48:48;94613.97;;;15.12;86.14
21395;BME280;10858;42.714;23.180;2022-09-09T03:51:15;94622.16;;;15.10;85.87
21395;BME280;10858;42.714;23.180;2022-09-09T03:53:42;94616.19;;;15.16;85.70
21395;BME280;10858;42.714;23.180;2022-09-09T03:56:09;94615.84;;;15.19;85.93
21395;BME280;10858;42.714;23.180;2022-09-09T03:58:36;94615.06;;;15.01;87.27
21395;BME280;10858;42.714;23.180;2022-09-09T04:01:05;94617.53;;;14.95;87.99
21395;BME280;10858;42.714;23.180;2022-09-09T04:03:32;94611.47;;;15.10;87.64
21395;BME280;10858;42.714;23.180;2022-09-09T04:06:00;94612.09;;;15.30;86.60
21395;BME280;10858;42.714;23.180;2022-09-09T04:08:26;94613.50;;;15.16;87.93
21395;BME280;10858;42.714;23.180;2022-09-09T04:10:53;94618.47;;;15.55;86.56
21395;BME280;10858;42.714;23.180;2022-09-09T04:13:23;94610.72;;;15.52;86.26
21395;BME280;10858;42.714;23.180;2022-09-09T04:15:54;94617.06;;;15.43;86.89
21395;BME280;10858;42.714;23.180;2022-09-09T04:18:21;94607.72;;;15.47;86.33
21395;BME280;10858;42.714;23.180;2022-09-09T04:20:48;94607.75;;;15.29;86.73
21395;BME280;10858;42.714;23.180;2022-09-09T04:23:16;94611.78;;;15.33;87.02
21395;BME280;10858;42.714;23.180;2022-09-09T04:25:46;94615.31;;;15.42;86.62
21395;BME280;10858;42.714;23.180;2022-09-09T04:28:13;94631.94;;;15.27;87.27
21395;BME280;10858;42.714;23.180;2022-09-09T04:30:40;94627.66;;;15.60;86.92
21395;BME280;10858;42.714;23.180;2022-09-09T04:33:07;94618.50;;;15.63;87.15
21395;BME280;10858;42.714;23.180;2022-09-09T04:35:34;94618.56;;;15.79;87.40
21395;BME280;10858;42.714;23.180;2022-09-09T04:38:00;94623.44;;;15.91;87.31
21395;BME280;10858;42.714;23.180;2022-09-09T04:40:29;94627.09;;;16.32;87.60
21395;BME280;10858;42.714;23.180;2022-09-09T04:42:58;94627.63;;;16.44;87.29
21395;BME280;10858;42.714;23.180;2022-09-09T04:45:25;94611.63;;;16.84;87.29
21395;BME280;10858;42.714;23.180;2022-09-09T04:47:52;94599.75;;;16.94;87.08
21395;BME280;10858;42.714;23.180;2022-09-09T04:50:19;94606.69;;;17.60;87.45
21395;BME280;10858;42.714;23.180;2022-09-09T04:52:45;94609.28;;;17.92;84.64
21395;BME280;10858;42.714;23.180;2022-09-09T04:55:12;94604.38;;;18.34;82.79
21395;BME280;10858;42.714;23.180;2022-09-09T04:57:39;94599.97;;;18.49;80.13
21395;BME280;10858;42.714;23.180;2022-09-09T05:00:06;94599.41;;;18.54;79.92
21395;BME280;10858;42.714;23.180;2022-09-09T05:02:32;94596.53;;;18.78;79.46
21395;BME280;10858;42.714;23.180;2022-09-09T05:04:59;94589.44;;;19.74;77.45
21395;BME280;10858;42.714;23.180;2022-09-09T05:07:27;94585.41;;;20.43;75.89
21395;BME280;10858;42.714;23.180;2022-09-09T05:09:54;94597.84;;;20.80;74.34
21395;BME280;10858;42.714;23.180;2022-09-09T05:12:21;94603.69;;;21.74;69.33
21395;BME280;10858;42.714;23.180;2022-09-09T05:14:48;94604.09;;;23.13;63.24
21395;BME280;10858;42.714;23.180;2022-09-09T05:17:14;94600.19;;;23.55;58.57
21395;BME280;10858;42.714;23.180;2022-09-09T05:19:40;94591.22;;;24.64;57.34
21395;BME280;10858;42.714;23.180;2022-09-09T05:22:07;94584.84;;;25.59;54.34
21395;BME280;10858;42.714;23.180;2022-09-09T05:24:33;94597.75;;;26.49;50.42
21395;BME280;10858;42.714;23.180;2022-09-09T05:26:59;94603.72;;;27.41;50.10
21395;BME280;10858;42.714;23.180;2022-09-09T05:29:28;94600.66;;;28.14;46.62
21395;BME280;10858;42.714;23.180;2022-09-09T05:31:54;94596.88;;;28.89;44.42
21395;BME280;10858;42.714;23.180;2022-09-09T05:34:20;94612.97;;;30.37;42.29
21395;BME280;10858;42.714;23.180;2022-09-09T05:36:47;94613.91;;;30.42;38.58
21395;BME280;10858;42.714;23.180;2022-09-09T05:39:13;94609.50;;;30.79;39.37
21395;BME280;10858;42.714;23.180;2022-09-09T05:41:39;94610.41;;;31.76;37.63
21395;BME280;10858;42.714;23.180;2022-09-09T05:44:05;94617.88;;;30.01;37.06
21395;BME280;10858;42.714;23.180;2022-09-09T05:46:32;94614.00;;;30.69;38.94
21395;BME280;10858;42.714;23.180;2022-09-09T05:48:58;94606.34;;;30.87;35.86
21395;BME280;10858;42.714;23.180;2022-09-09T05:51:27;94603.88;;;31.56;36.29
21395;BME280;10858;42.714;23.180;2022-09-09T05:53:56;94611.69;;;31.96;34.96
21395;BME280;10858;42.714;23.180;2022-09-09T05:56:26;94618.31;;;32.68;33.61
21395;BME280;10858;42.714;23.180;2022-09-09T05:58:53;94618.56;;;33.13;32.42
21395;BME280;10858;42.714;23.180;2022-09-09T06:01:25;94623.03;;;33.24;32.88
21395;BME280;10858;42.714;23.180;2022-09-09T06:03:55;94618.69;;;32.45;33.19
21395;BME280;10858;42.714;23.180;2022-09-09T06:06:27;94611.63;;;31.91;34.18
21395;BME280;10858;42.714;23.180;2022-09-09T06:08:56;94612.38;;;31.33;34.12
21395;BME280;10858;42.714;23.180;2022-09-09T06:11:29;94613.38;;;30.62;36.98
21395;BME280;10858;42.714;23.180;2022-09-09T06:13:58;94623.94;;;31.56;34.94
21395;BME280;10858;42.714;23.180;2022-09-09T06:16:26;94627.03;;;32.97;32.30
21395;BME280;10858;42.714;23.180;2022-09-09T06:18:54;94613.63;;;33.15;31.56
21395;BME280;10858;42.714;23.180;2022-09-09T06:21:35;94621.78;;;32.53;32.44
21395;BME280;10858;42.714;23.180;2022-09-09T06:24:03;94621.25;;;32.20;33.51
21395;BME280;10858;42.714;23.180;2022-09-09T06:26:32;94624.97;;;32.77;34.11
21395;BME280;10858;42.714;23.180;2022-09-09T06:28:59;94624.94;;;34.01;30.84
21395;BME280;10858;42.714;23.180;2022-09-09T06:31:29;94618.91;;;34.69;29.27
21395;BME280;10858;42.714;23.180;2022-09-09T06:33:57;94616.41;;;34.38;30.98
21395;BME280;10858;42.714;23.180;2022-09-09T06:36:26;94605.69;;;34.21;31.22
21395;BME280;10858;42.714;23.180;2022-09-09T06:38:53;94611.72;;;34.43;29.57
21395;BME280;10858;42.714;23.180;2022-09-09T06:41:26;94611.72;;;34.28;29.73
21395;BME280;10858;42.714;23.180;2022-09-09T06:43:53;94610.63;;;34.19;30.13
21395;BME280;10858;42.714;23.180;2022-09-09T06:46:25;94611.63;;;34.93;28.72
21395;BME280;10858;42.714;23.180;2022-09-09T06:48:54;94611.16;;;34.71;29.82
21395;BME280;10858;42.714;23.180;2022-09-09T06:51:36;94615.03;;;34.30;29.85
21395;BME280;10858;42.714;23.180;2022-09-09T06:54:08;94627.66;;;34.81;29.31
21395;BME280;10858;42.714;23.180;2022-09-09T06:56:37;94623.00;;;35.66;28.59
21395;BME280;10858;42.714;23.180;2022-09-09T06:59:07;94624.34;;;34.89;30.11
21395;BME280;10858;42.714;23.180;2022-09-09T07:01:39;94619.69;;;34.40;29.90
21395;BME280;10858;42.714;23.180;2022-09-09T07:04:17;94623.78;;;33.92;30.41
21395;BME280;10858;42.714;23.180;2022-09-09T07:06:45;94621.09;;;34.37;29.46
21395;BME280;10858;42.714;23.180;2022-09-09T07:09:13;94610.84;;;34.78;30.63
21395;BME280;10858;42.714;23.180;2022-09-09T07:11:45;94610.25;;;35.70;28.43
21395;BME280;10858;42.714;23.180;2022-09-09T07:14:12;94609.50;;;34.70;29.98
21395;BME280;10858;42.714;23.180;2022-09-09T07:16:43;94609.19;;;34.97;30.09
21395;BME280;10858;42.714;23.180;2022-09-09T07:19:10;94605.06;;;34.84;30.29
21395;BME280;10858;42.714;23.180;2022-09-09T07:21:37;94606.94;;;36.55;27.82
21395;BME280;10858;42.714;23.180;2022-09-09T07:24:03;94608.31;;;35.12;28.84
21395;BME280;10858;42.714;23.180;2022-09-09T07:26:33;94596.53;;;34.46;30.31
21395;BME280;10858;42.714;23.180;2022-09-09T07:28:59;94595.16;;;34.78;30.00
21395;BME280;10858;42.714;23.180;2022-09-09T07:31:31;94595.22;;;34.53;31.29
21395;BME280;10858;42.714;23.180;2022-09-09T07:34:00;94595.53;;;35.31;30.67
21395;BME280;10858;42.714;23.180;2022-09-09T07:36:29;94604.19;;;35.68;29.84
21395;BME280;10858;42.714;23.180;2022-09-09T07:38:58;94605.34;;;35.62;28.67
21395;BME280;10858;42.714;23.180;2022-09-09T07:41:27;94604.84;;;37.47;26.66
21395;BME280;10858;42.714;23.180;2022-09-09T07:43:54;94596.13;;;36.83;27.22
21395;BME280;10858;42.714;23.180;2022-09-09T07:46:22;94607.13;;;35.33;28.67
21395;BME280;10858;42.714;23.180;2022-09-09T07:48:53;94606.53;;;35.36;30.65
21395;BME280;10858;42.714;23.180;2022-09-09T07:51:32;94606.91;;;36.84;28.98
21395;BME280;10858;42.714;23.180;2022-09-09T07:54:01;94606.41;;;36.48;29.46
21395;BME280;10858;42.714;23.180;2022-09-09T07:56:29;94598.31;;;35.31;29.97
21395;BME280;10858;42.714;23.180;2022-09-09T07:58:56;94601.81;;;34.32;30.60
21395;BME280;10858;42.714;23.180;2022-09-09T08:01:27;94607.03;;;34.13;31.16
21395;BME280;10858;42.714;23.180;2022-09-09T08:03:57;94618.34;;;34.22;31.14
21395;BME280;10858;42.714;23.180;2022-09-09T08:06:33;94599.41;;;33.33;31.67
21395;BME280;10858;42.714;23.180;2022-09-09T08:09:00;94594.03;;;32.55;33.50
21395;BME280;10858;42.714;23.180;2022-09-09T08:11:29;94602.38;;;32.28;34.60
21395;BME280;10858;42.714;23.180;2022-09-09T08:13:56;94599.50;;;32.13;33.25
21395;BME280;10858;42.714;23.180;2022-09-09T08:16:28;94592.28;;;31.27;34.32
21395;BME280;10858;42.714;23.180;2022-09-09T08:18:55;94599.53;;;32.18;33.54
21395;BME280;10858;42.714;23.180;2022-09-09T08:21:24;94594.53;;;32.94;32.16
21395;BME280;10858;42.714;23.180;2022-09-09T08:23:53;94597.69;;;33.17;33.07
21395;BME280;10858;42.714;23.180;2022-09-09T08:26:22;94591.19;;;32.82;32.25
21395;BME280;10858;42.714;23.180;2022-09-09T08:28:50;94581.19;;;32.29;33.91
21395;BME280;10858;42.714;23.180;2022-09-09T08:31:23;94583.88;;;32.55;32.92
21395;BME280;10858;42.714;23.180;2022-09-09T08:33:50;94587.34;;;32.83;33.16
21395;BME280;10858;42.714;23.180;2022-09-09T08:36:19;94586.13;;;32.58;32.46
21395;BME280;10858;42.714;23.180;2022-09-09T08:38:54;94589.22;;;33.34;31.90
21395;BME280;10858;42.714;23.180;2022-09-09T08:55:37;94573.84;;;32.81;32.40
21395;BME280;10858;42.714;23.180;2022-09-09T08:58:34;94571.06;;;33.23;33.41
21395;BME280;10858;42.714;23.180;2022-09-09T09:03:58;94572.75;;;33.44;31.98
21395;BME280;10858;42.714;23.180;2022-09-09T09:12:19;94579.88;;;33.30;31.62
21395;BME280;10858;42.714;23.180;2022-09-09T09:14:47;94572.63;;;32.99;33.85
21395;BME280;10858;42.714;23.180;2022-09-09T09:17:19;94578.44;;;32.65;34.12
21395;BME280;10858;42.714;23.180;2022-09-09T09:19:47;94570.47;;;33.16;34.40
21395;BME280;10858;42.714;23.180;2022-09-09T09:22:43;94562.34;;;33.61;34.11
21395;BME280;10858;42.714;23.180;2022-09-09T09:25:23;94569.59;;;33.05;32.20
21395;BME280;10858;42.714;23.180;2022-09-09T09:27:57;94563.44;;;33.55;33.33
21395;BME280;10858;42.714;23.180;2022-09-09T09:30:35;94560.09;;;33.43;31.85
21395;BME280;10858;42.714;23.180;2022-09-09T09:35:42;94557.72;;;31.74;36.78
21395;BME280;10858;42.714;23.180;2022-09-09T09:38:35;94556.91;;;30.61;37.57
21395;BME280;10858;42.714;23.180;2022-09-09T09:41:02;94550.09;;;30.63;37.60
21395;BME280;10858;42.714;23.180;2022-09-09T09:43:31;94557.66;;;30.35;37.50
21395;BME280;10858;42.714;23.180;2022-09-09T09:45:57;94561.31;;;29.90;40.70
21395;BME280;10858;42.714;23.180;2022-09-09T09:48:25;94550.94;;;29.92;41.03
21395;BME280;10858;42.714;23.180;2022-09-09T09:53:28;94542.78;;;30.69;39.73
21395;BME280;10858;42.714;23.180;2022-09-09T09:56:03;94542.03;;;30.95;36.91
21395;BME280;10858;42.714;23.180;2022-09-09T10:01:27;94545.34;;;30.97;36.21
21395;BME280;10858;42.714;23.180;2022-09-09T10:04:15;94551.88;;;29.98;39.18
21395;BME280;10858;42.714;23.180;2022-09-09T10:06:46;94558.47;;;29.69;41.83
21395;BME280;10858;42.714;23.180;2022-09-09T10:09:23;94559.78;;;29.66;41.84
21395;BME280;10858;42.714;23.180;2022-09-09T10:14:23;94557.13;;;29.10;41.10
21395;BME280;10858;42.714;23.180;2022-09-09T10:20:18;94569.06;;;29.32;40.12
21395;BME280;10858;42.714;23.180;2022-09-09T10:22:52;94563.69;;;29.54;42.10
21395;BME280;10858;42.714;23.180;2022-09-09T10:31:36;94563.78;;;29.59;41.55
21395;BME280;10858;42.714;23.180;2022-09-09T10:36:27;94579.84;;;29.55;42.61
21395;BME280;10858;42.714;23.180;2022-09-09T10:39:05;94573.56;;;29.71;41.88
21395;BME280;10858;42.714;23.180;2022-09-09T10:41:54;94581.56;;;29.89;42.01
21395;BME280;10858;42.714;23.180;2022-09-09T10:50:18;94576.38;;;30.43;39.57
21395;BME280;10858;42.714;23.180;2022-09-09T10:53:12;94572.91;;;30.69;39.89
21395;BME280;10858;42.714;23.180;2022-09-09T10:55:45;94572.44;;;30.93;42.17
21395;BME280;10858;42.714;23.180;2022-09-09T10:58:42;94576.56;;;31.39;38.11
21395;BME280;10858;42.714;23.180;2022-09-09T11:04:19;94571.09;;;30.96;38.79
21395;BME280;10858;42.714;23.180;2022-09-09T11:06:58;94567.00;;;30.98;37.89
21395;BME280;10858;42.714;23.180;2022-09-09T11:09:47;94562.34;;;30.77;39.86
21395;BME280;10858;42.714;23.180;2022-09-09T11:12:18;94560.78;;;31.30;38.93
21395;BME280;10858;42.714;23.180;2022-09-09T11:14:59;94554.72;;;31.49;38.46
21395;BME280;10858;42.714;23.180;2022-09-09T11:17:56;94539.06;;;31.76;36.75
21395;BME280;10858;42.714;23.180;2022-09-09T11:20:25;94542.25;;;32.32;35.33
21395;BME280;10858;42.714;23.180;2022-09-09T11:25:27;94540.22;;;32.17;38.08
21395;BME280;10858;42.714;23.180;2022-09-09T11:40:23;94487.19;;;32.12;36.73
21395;BME280;10858;42.714;23.180;2022-09-09T11:43:11;94481.38;;;31.71;37.68
21395;BME280;10858;42.714;23.180;2022-09-09T11:45:40;94470.22;;;32.20;36.64
21395;BME280;10858;42.714;23.180;2022-09-09T11:48:27;94473.63;;;32.42;37.75
21395;BME280;10858;42.714;23.180;2022-09-09T11:51:00;94477.13;;;32.89;35.06
21395;BME280;10858;42.714;23.180;2022-09-09T11:53:26;94483.06;;;32.56;35.70
21395;BME280;10858;42.714;23.180;2022-09-09T11:56:11;94490.25;;;33.89;35.51
21395;BME280;10858;42.714;23.180;2022-09-09T11:58:44;94476.91;;;34.67;32.93
21395;BME280;10858;42.714;23.180;2022-09-09T12:01:35;94474.72;;;34.69;33.10
21395;BME280;10858;42.714;23.180;2022-09-09T12:04:32;94465.19;;;34.16;36.05
21395;BME280;10858;42.714;23.180;2022-09-09T12:09:58;94453.47;;;32.83;38.76
21395;BME280;10858;42.714;23.180;2022-09-09T12:12:33;94451.44;;;32.48;40.15
21395;BME280;10858;42.714;23.180;2022-09-09T12:15:19;94453.94;;;32.55;39.81
21395;BME280;10858;42.714;23.180;2022-09-09T12:17:55;94448.75;;;32.58;39.20
21395;BME280;10858;42.714;23.180;2022-09-09T12:20:35;94449.25;;;33.58;39.00
21395;BME280;10858;42.714;23.180;2022-09-09T12:23:19;94449.22;;;34.23;37.33
21395;BME280;10858;42.714;23.180;2022-09-09T12:26:31;94447.53;;;34.27;37.13
21395;BME280;10858;42.714;23.180;2022-09-09T12:34:46;94445.78;;;31.76;40.82
21395;BME280;10858;42.714;23.180;2022-09-09T12:37:35;94439.72;;;31.74;41.25
21395;BME280;10858;42.714;23.180;2022-09-09T12:40:21;94445.00;;;32.28;40.55
21395;BME280;10858;42.714;23.180;2022-09-09T12:42:48;94434.72;;;32.60;40.15
21395;BME280;10858;42.714;23.180;2022-09-09T12:45:25;94430.25;;;32.44;39.12
21395;BME280;10858;42.714;23.180;2022-09-09T12:48:01;94428.97;;;32.10;40.51
21395;BME280;10858;42.714;23.180;2022-09-09T12:50:49;94428.22;;;32.91;38.83
21395;BME280;10858;42.714;23.180;2022-09-09T12:53:23;94426.78;;;32.69;39.54
21395;BME280;10858;42.714;23.180;2022-09-09T12:55:59;94412.31;;;32.26;40.18
21395;BME280;10858;42.714;23.180;2022-09-09T12:58:28;94419.06;;;31.67;40.21
21395;BME280;10858;42.714;23.180;2022-09-09T13:00:59;94427.66;;;31.12;44.94
21395;BME280;10858;42.714;23.180;2022-09-09T13:03:26;94421.41;;;31.48;40.54
21395;BME280;10858;42.714;23.180;2022-09-09T13:05:53;94417.16;;;31.04;41.22
21395;BME280;10858;42.714;23.180;2022-09-09T13:08:25;94417.44;;;32.08;39.58
21395;BME280;10858;42.714;23.180;2022-09-09T13:11:03;94417.75;;;31.74;40.47
21395;BME280;10858;42.714;23.180;2022-09-09T13:13:39;94414.47;;;30.61;42.05
21395;BME280;10858;42.714;23.180;2022-09-09T13:16:18;94393.78;;;30.27;42.35
21395;BME280;10858;42.714;23.180;2022-09-09T13:18:45;94396.84;;;29.87;42.00
21395;BME280;10858;42.714;23.180;2022-09-09T13:21:12;94399.53;;;30.03;44.44
21395;BME280;10858;42.714;23.180;2022-09-09T13:23:39;94397.63;;;30.04;43.76
21395;BME280;10858;42.714;23.180;2022-09-09T13:26:20;94394.53;;;29.62;45.12
21395;BME280;10858;42.714;23.180;2022-09-09T13:28:50;94392.31;;;29.59;45.62
21395;BME280;10858;42.714;23.180;2022-09-09T13:31:32;94390.69;;;29.08;45.29
21395;BME280;10858;42.714;23.180;2022-09-09T13:33:59;94394.25;;;29.09;46.40
21395;BME280;10858;42.714;23.180;2022-09-09T13:36:34;94389.13;;;28.96;47.91
21395;BME280;10858;42.714;23.180;2022-09-09T13:39:02;94375.63;;;29.22;47.09
21395;BME280;10858;42.714;23.180;2022-09-09T13:41:36;94373.06;;;29.32;46.57
21395;BME280;10858;42.714;23.180;2022-09-09T13:44:23;94358.66;;;29.37;46.63
21395;BME280;10858;42.714;23.180;2022-09-09T13:47:01;94359.94;;;29.51;45.32
21395;BME280;10858;42.714;23.180;2022-09-09T13:49:29;94367.41;;;30.15;44.56
21395;BME280;10858;42.714;23.180;2022-09-09T13:52:16;94368.69;;;30.83;42.99
21395;BME280;10858;42.714;23.180;2022-09-09T13:54:48;94374.06;;;31.31;43.63
21395;BME280;10858;42.714;23.180;2022-09-09T13:57:18;94357.53;;;31.53;38.94
21395;BME280;10858;42.714;23.180;2022-09-09T13:59:45;94357.19;;;31.91;38.65
21395;BME280;10858;42.714;23.180;2022-09-09T14:02:12;94355.91;;;31.20;40.98
21395;BME280;10858;42.714;23.180;2022-09-09T14:04:39;94356.81;;;30.99;40.41
21395;BME280;10858;42.714;23.180;2022-09-09T14:07:13;94357.50;;;31.48;40.58
21395;BME280;10858;42.714;23.180;2022-09-09T14:09:40;94355.53;;;31.38;39.18
21395;BME280;10858;42.714;23.180;2022-09-09T14:12:13;94357.03;;;31.61;37.57
21395;BME280;10858;42.714;23.180;2022-09-09T14:14:41;94357.91;;;31.35;40.62
21395;BME280;10858;42.714;23.180;2022-09-09T14:17:08;94348.66;;;31.09;39.97
21395;BME280;10858;42.714;23.180;2022-09-09T14:19:35;94350.34;;;30.57;40.91
21395;BME280;10858;42.714;23.180;2022-09-09T14:22:03;94358.25;;;31.07;44.10
21395;BME280;10858;42.714;23.180;2022-09-09T14:24:29;94345.53;;;32.21;38.42
21395;BME280;10858;42.714;23.180;2022-09-09T14:26:55;94347.22;;;32.17;38.66
21395;BME280;10858;42.714;23.180;2022-09-09T14:29:24;94346.72;;;32.40;39.03
21395;BME280;10858;42.714;23.180;2022-09-09T14:31:52;94356.53;;;33.03;37.89
21395;BME280;10858;42.714;23.180;2022-09-09T14:34:18;94348.31;;;34.37;34.81
21395;BME280;10858;42.714;23.180;2022-09-09T14:36:44;94363.91;;;34.62;34.73
21395;BME280;10858;42.714;23.180;2022-09-09T14:39:11;94353.63;;;34.13;35.02
21395;BME280;10858;42.714;23.180;2022-09-09T14:41:38;94356.25;;;33.55;36.17
21395;BME280;10858;42.714;23.180;2022-09-09T14:44:04;94356.13;;;34.10;34.93
21395;BME280;10858;42.714;23.180;2022-09-09T14:46:30;94349.00;;;34.68;35.30
21395;BME280;10858;42.714;23.180;2022-09-09T14:48:58;94352.31;;;33.86;34.71
21395;BME280;10858;42.714;23.180;2022-09-09T14:51:26;94352.16;;;32.20;37.75
21395;BME280;10858;42.714;23.180;2022-09-09T14:53:56;94366.50;;;31.43;39.79
21395;BME280;10858;42.714;23.180;2022-09-09T14:56:26;94361.16;;;30.95;42.11
21395;BME280;10858;42.714;23.180;2022-09-09T14:58:57;94361.88;;;30.59;43.18
21395;BME280;10858;42.714;23.180;2022-09-09T15:01:24;94366.00;;;29.91;43.03
21395;BME280;10858;42.714;23.180;2022-09-09T15:04:02;94362.63;;;29.46;43.81
21395;BME280;10858;42.714;23.180;2022-09-09T15:06:30;94369.13;;;30.00;43.69
21395;BME280;10858;42.714;23.180;2022-09-09T15:08:59;94363.50;;;31.13;41.07
21395;BME280;10858;42.714;23.180;2022-09-09T15:11:33;94360.25;;;31.16;41.75
21395;BME280;10858;42.714;23.180;2022-09-09T15:14:04;94367.63;;;31.47;41.83
21395;BME280;10858;42.714;23.180;2022-09-09T15:16:30;94364.50;;;31.70;40.95
21395;BME280;10858;42.714;23.180;2022-09-09T15:18:59;94370.47;;;32.04;39.95
21395;BME280;10858;42.714;23.180;2022-09-09T15:21:28;94355.78;;;31.83;40.32